Time;durP1;ratioP1;P1;durP2;ratioP2;P2;SDS_P1;SDS_P2;PMS_P1;PMS_P2;Temp;Humidity;BMP_temperature;BMP_pressure;BME280_temperature;BME280_humidity;BME280_pressure;Samples;Min_cycle;Max_cycle;Signal;HPM_P1;HPM_P2
2021/09/05 00:01:54;;;;;;;18.60;15.63;;;15.50;99.90;;;;;;5128348;27;20420;-37
2021/09/05 00:04:19;;;;;;;20.30;15.47;;;15.50;99.90;;;;;;5120753;27;20404;-37
2021/09/05 00:06:45;;;;;;;19.70;15.70;;;15.50;99.90;;;;;;5129014;27;20187;-38
2021/09/05 00:09:11;;;;;;;25.13;15.93;;;15.60;99.90;;;;;;5126524;27;20214;-37
2021/09/05 00:11:36;;;;;;;20.00;16.60;;;15.50;99.90;;;;;;5129140;27;20713;-37
2021/09/05 00:14:02;;;;;;;18.50;14.83;;;15.60;99.90;;;;;;5122699;27;20328;-37
2021/09/05 00:16:30;;;;;;;20.60;16.40;;;15.60;99.90;;;;;;5106692;28;20716;-37
2021/09/05 00:18:57;;;;;;;21.07;16.43;;;15.60;99.90;;;;;;5110002;27;20233;-37
2021/09/05 00:21:23;;;;;;;24.13;16.47;;;15.60;99.90;;;;;;5125819;27;21096;-37
2021/09/05 00:23:49;;;;;;;19.30;15.37;;;15.60;99.90;;;;;;5121974;27;20544;-36
2021/09/05 00:26:14;;;;;;;22.00;17.40;;;15.60;99.90;;;;;;5127993;27;20475;-37
2021/09/05 00:28:40;;;;;;;21.00;15.63;;;15.60;99.90;;;;;;5128413;27;20687;-37
2021/09/05 00:31:07;;;;;;;19.17;14.53;;;15.60;99.90;;;;;;5127945;27;20239;-37
2021/09/05 00:33:32;;;;;;;20.80;16.27;;;15.60;99.90;;;;;;5123461;27;20209;-37
2021/09/05 00:35:58;;;;;;;20.03;14.73;;;15.60;99.90;;;;;;5122130;27;20417;-37
2021/09/05 00:38:24;;;;;;;21.60;15.97;;;15.50;99.90;;;;;;5127933;27;20567;-37
2021/09/05 00:40:50;;;;;;;23.43;16.23;;;15.40;99.90;;;;;;5128026;27;20226;-37
2021/09/05 00:43:15;;;;;;;24.63;16.80;;;15.40;99.90;;;;;;5127716;27;20451;-37
2021/09/05 00:45:41;;;;;;;21.97;16.80;;;15.40;99.90;;;;;;5127591;27;20591;-37
2021/09/05 00:48:07;;;;;;;19.20;15.33;;;15.40;99.90;;;;;;5127539;27;20193;-36
2021/09/05 00:50:33;;;;;;;18.93;15.60;;;15.30;99.90;;;;;;5120704;27;20665;-37
2021/09/05 00:52:59;;;;;;;18.90;15.70;;;15.20;99.90;;;;;;5121488;27;20285;-37
2021/09/05 00:55:25;;;;;;;22.93;16.40;;;15.20;99.90;;;;;;5128372;27;20528;-37
2021/09/05 00:57:51;;;;;;;22.63;16.00;;;15.10;99.90;;;;;;5127508;27;20432;-37
2021/09/05 01:00:19;;;;;;;20.00;14.97;;;15.10;99.90;;;;;;5127695;27;20424;-37
2021/09/05 01:02:48;;;;;;;20.33;15.70;;;15.00;99.90;;;;;;5126600;27;20516;-37
2021/09/05 01:05:14;;;;;;;20.13;16.13;;;15.10;99.90;;;;;;5113614;27;21039;-37
2021/09/05 01:07:40;;;;;;;20.20;14.53;;;15.10;99.90;;;;;;5126855;27;20432;-37
2021/09/05 01:10:07;;;;;;;22.63;15.90;;;15.20;99.90;;;;;;5127888;27;20266;-37
2021/09/05 01:12:32;;;;;;;19.30;15.80;;;15.20;99.90;;;;;;5126891;27;20420;-37
2021/09/05 01:14:58;;;;;;;19.03;13.80;;;15.20;99.90;;;;;;5111971;27;20436;-38
2021/09/05 01:17:24;;;;;;;21.87;15.90;;;15.20;99.90;;;;;;5105040;28;20188;-37
2021/09/05 01:19:49;;;;;;;21.33;15.17;;;15.20;99.90;;;;;;5109530;27;20188;-37
2021/09/05 01:22:15;;;;;;;19.90;15.50;;;15.20;99.90;;;;;;5126966;27;20277;-37
2021/09/05 01:24:41;;;;;;;20.80;16.50;;;15.10;99.90;;;;;;5127487;27;20215;-37
2021/09/05 01:27:07;;;;;;;23.70;15.83;;;15.10;99.90;;;;;;5126905;27;20425;-37
2021/09/05 01:29:33;;;;;;;23.63;15.93;;;15.20;99.90;;;;;;5126797;27;20195;-37
2021/09/05 01:31:59;;;;;;;21.40;15.40;;;15.10;99.90;;;;;;5126794;27;20631;-37
2021/09/05 01:34:26;;;;;;;21.80;16.67;;;15.20;99.90;;;;;;5120138;27;20683;-36
2021/09/05 01:36:53;;;;;;;20.77;16.13;;;15.00;99.90;;;;;;5121555;27;20458;-37
2021/09/05 01:39:21;;;;;;;21.70;15.80;;;15.00;99.90;;;;;;5125974;27;20421;-37
2021/09/05 01:41:47;;;;;;;18.77;14.77;;;15.10;99.90;;;;;;5126530;27;20785;-37
2021/09/05 01:44:18;;;;;;;21.60;15.60;;;15.10;99.90;;;;;;5126416;27;20532;-37
2021/09/05 01:46:44;;;;;;;19.87;15.50;;;15.10;99.90;;;;;;5127040;27;20429;-37
2021/09/05 01:49:10;;;;;;;18.37;14.27;;;15.00;99.90;;;;;;5122337;27;20441;-36
2021/09/05 01:51:35;;;;;;;18.70;14.20;;;15.00;99.90;;;;;;5121547;27;20194;-37
2021/09/05 01:54:02;;;;;;;23.00;16.53;;;15.00;99.90;;;;;;5126745;27;20778;-37
2021/09/05 01:56:29;;;;;;;22.90;15.30;;;15.00;99.90;;;;;;5108167;27;20290;-37
2021/09/05 01:58:56;;;;;;;20.23;15.20;;;15.00;99.90;;;;;;5126838;27;20446;-37
2021/09/05 02:01:24;;;;;;;21.60;16.03;;;15.00;99.90;;;;;;5126977;27;20463;-37
2021/09/05 02:03:49;;;;;;;24.83;15.90;;;14.90;99.90;;;;;;5125997;27;20447;-37
2021/09/05 02:06:15;;;;;;;23.10;15.63;;;14.90;99.90;;;;;;5116689;27;20460;-37
2021/09/05 02:08:41;;;;;;;20.40;14.90;;;14.90;99.90;;;;;;5126685;27;20202;-37
2021/09/05 02:11:07;;;;;;;22.03;15.10;;;14.90;99.90;;;;;;5126376;27;20556;-37
2021/09/05 02:13:32;;;;;;;21.77;15.17;;;14.80;99.90;;;;;;5122598;27;20188;-37
2021/09/05 02:15:58;;;;;;;20.33;15.43;;;14.70;99.90;;;;;;5105924;28;20195;-37
2021/09/05 02:18:24;;;;;;;22.37;16.57;;;14.70;99.90;;;;;;5104402;28;20298;-37
2021/09/05 02:20:50;;;;;;;25.80;16.73;;;14.70;99.90;;;;;;5113580;28;20433;-37
2021/09/05 02:23:15;;;;;;;20.60;15.77;;;14.70;99.90;;;;;;5125999;28;20542;-37
2021/09/05 02:25:41;;;;;;;23.30;15.40;;;14.60;99.90;;;;;;5125964;28;20229;-37
2021/09/05 02:28:07;;;;;;;22.57;15.10;;;14.50;99.90;;;;;;5126719;28;20191;-37
2021/09/05 02:30:34;;;;;;;23.53;15.87;;;14.50;99.90;;;;;;5126740;28;20202;-36
2021/09/05 02:33:01;;;;;;;21.40;15.60;;;14.40;99.90;;;;;;5126240;28;20311;-37
2021/09/05 02:35:27;;;;;;;23.73;16.53;;;14.40;99.90;;;;;;5116287;28;20433;-37
2021/09/05 02:37:52;;;;;;;20.07;15.90;;;14.40;99.90;;;;;;5124380;28;20425;-37
2021/09/05 02:40:18;;;;;;;20.53;16.23;;;14.40;99.90;;;;;;5126151;28;20784;-37
2021/09/05 02:42:44;;;;;;;19.47;15.30;;;14.50;99.90;;;;;;5126296;28;20294;-36
2021/09/05 02:45:10;;;;;;;22.23;15.93;;;14.50;99.90;;;;;;5126544;28;20305;-37
2021/09/05 02:47:36;;;;;;;21.00;15.00;;;14.50;99.90;;;;;;5125952;28;20187;-37
2021/09/05 02:50:04;;;;;;;22.37;16.60;;;14.60;99.90;;;;;;5117968;28;20437;-37
2021/09/05 02:52:29;;;;;;;21.33;16.23;;;14.50;99.90;;;;;;5123936;28;20190;-37
2021/09/05 02:54:55;;;;;;;20.23;15.17;;;14.40;99.90;;;;;;5107670;28;20927;-37
2021/09/05 02:57:21;;;;;;;20.50;15.23;;;14.50;99.90;;;;;;5126156;28;20247;-37
2021/09/05 02:59:47;;;;;;;22.43;16.00;;;14.50;99.90;;;;;;5126588;28;20191;-37
2021/09/05 03:02:12;;;;;;;31.20;17.47;;;14.50;99.90;;;;;;5125880;28;20613;-37
2021/09/05 03:04:38;;;;;;;22.93;16.13;;;14.50;99.90;;;;;;5122567;28;20219;-36
2021/09/05 03:07:04;;;;;;;22.83;17.70;;;14.50;99.90;;;;;;5113947;28;20404;-37
2021/09/05 03:09:29;;;;;;;20.97;15.37;;;14.50;99.90;;;;;;5123910;28;20183;-37
2021/09/05 03:11:55;;;;;;;18.00;14.77;;;14.50;99.90;;;;;;5126143;28;20649;-37
2021/09/05 03:14:21;;;;;;;22.60;17.03;;;14.40;99.90;;;;;;5116603;28;20653;-37
2021/09/05 03:16:46;;;;;;;22.80;15.50;;;14.40;99.90;;;;;;5103524;28;20291;-37
2021/09/05 03:19:12;;;;;;;25.50;16.60;;;14.40;99.90;;;;;;5105734;28;20287;-37
2021/09/05 03:21:39;;;;;;;23.63;17.30;;;14.40;99.90;;;;;;5110779;28;20187;-38
2021/09/05 03:24:05;;;;;;;20.63;16.00;;;14.30;99.90;;;;;;5125684;28;20672;-37
2021/09/05 03:26:34;;;;;;;22.50;16.27;;;14.30;99.90;;;;;;5127731;27;20487;-37
2021/09/05 03:29:01;;;;;;;21.63;16.43;;;14.30;99.90;;;;;;5129743;27;20424;-37
2021/09/05 03:31:26;;;;;;;21.47;15.50;;;14.30;99.90;;;;;;5129350;27;20508;-37
2021/09/05 03:33:52;;;;;;;22.40;15.73;;;14.40;99.90;;;;;;5129499;27;20833;-37
2021/09/05 03:36:18;;;;;;;21.57;15.87;;;14.40;99.90;;;;;;5117452;27;20238;-37
2021/09/05 03:38:43;;;;;;;18.50;14.93;;;14.40;99.90;;;;;;5128795;27;20194;-37
2021/09/05 03:41:09;;;;;;;19.50;15.53;;;14.30;99.90;;;;;;5129556;27;20191;-37
2021/09/05 03:43:35;;;;;;;21.73;16.20;;;14.30;99.90;;;;;;5129150;27;20217;-37
2021/09/05 03:46:01;;;;;;;21.10;16.60;;;14.30;99.90;;;;;;5129157;27;20214;-36
2021/09/05 03:48:26;;;;;;;23.67;17.80;;;14.30;99.90;;;;;;5129476;27;20240;-37
2021/09/05 03:50:52;;;;;;;22.30;15.90;;;14.40;99.90;;;;;;5119848;27;20187;-37
2021/09/05 03:53:18;;;;;;;25.07;18.20;;;14.20;99.90;;;;;;5125253;27;20179;-37
2021/09/05 03:55:44;;;;;;;27.03;17.60;;;14.30;99.90;;;;;;5128657;27;20428;-37
2021/09/05 03:58:09;;;;;;;24.10;17.17;;;14.20;99.90;;;;;;5129529;27;20198;-37
2021/09/05 04:00:36;;;;;;;25.90;17.10;;;14.20;99.90;;;;;;5129082;27;20843;-37
2021/09/05 04:03:01;;;;;;;23.90;17.20;;;14.20;99.90;;;;;;5128884;27;20183;-37
2021/09/05 04:05:27;;;;;;;23.93;17.67;;;14.20;99.90;;;;;;5123225;27;20525;-37
2021/09/05 04:10:34;;;;;;;24.33;16.93;;;14.30;99.90;;;;;;5124041;27;20483;-37
2021/09/05 04:13:00;;;;;;;25.70;18.10;;;14.20;99.90;;;;;;5128281;27;20478;-37
2021/09/05 04:15:27;;;;;;;24.17;17.00;;;14.20;99.90;;;;;;5110059;27;20426;-37
2021/09/05 04:17:53;;;;;;;24.63;17.20;;;14.10;99.90;;;;;;5106236;28;20433;-36
2021/09/05 04:20:19;;;;;;;20.40;16.60;;;14.00;99.90;;;;;;5107309;28;20514;-37
2021/09/05 04:22:45;;;;;;;25.93;17.17;;;14.00;99.90;;;;;;5120579;27;20412;-37
2021/09/05 04:25:11;;;;;;;22.40;15.73;;;14.10;99.90;;;;;;5109944;27;20215;-37
2021/09/05 04:27:37;;;;;;;22.17;16.80;;;14.10;99.90;;;;;;5128210;27;20218;-36
2021/09/05 04:30:05;;;;;;;22.70;16.93;;;14.00;99.90;;;;;;5128631;27;20483;-37
2021/09/05 04:32:31;;;;;;;22.33;16.33;;;14.00;99.90;;;;;;5128276;27;20536;-37
2021/09/05 04:34:57;;;;;;;21.40;16.97;;;14.00;99.90;;;;;;5108153;27;20433;-37
2021/09/05 04:37:22;;;;;;;20.67;15.10;;;13.90;99.90;;;;;;5119859;27;20685;-37
2021/09/05 04:39:48;;;;;;;22.57;16.70;;;13.80;99.90;;;;;;5128504;27;20240;-37
2021/09/05 04:42:14;;;;;;;25.80;17.00;;;13.70;99.90;;;;;;5109388;27;20562;-36
2021/09/05 04:44:39;;;;;;;24.67;17.93;;;13.80;99.90;;;;;;5128141;27;20456;-37
2021/09/05 04:47:05;;;;;;;22.43;15.97;;;13.80;99.90;;;;;;5128292;27;20191;-37
2021/09/05 04:49:32;;;;;;;23.97;17.00;;;13.80;99.90;;;;;;5128081;27;20183;-37
2021/09/05 04:51:58;;;;;;;21.30;16.63;;;13.70;99.90;;;;;;5117022;27;20938;-37
2021/09/05 04:54:24;;;;;;;20.13;15.07;;;13.70;99.90;;;;;;5123067;27;20613;-37
2021/09/05 04:56:50;;;;;;;23.50;16.30;;;13.70;99.90;;;;;;5127862;27;20657;-37
2021/09/05 04:59:15;;;;;;;21.73;16.13;;;13.50;99.90;;;;;;5128335;27;20183;-37
2021/09/05 05:01:41;;;;;;;22.70;15.60;;;13.50;99.90;;;;;;5127998;27;20191;-37
2021/09/05 05:04:07;;;;;;;23.63;16.53;;;13.50;99.90;;;;;;5127615;27;20214;-37
2021/09/05 05:06:32;;;;;;;23.50;15.60;;;13.50;99.90;;;;;;5117536;27;20709;-37
2021/09/05 05:08:58;;;;;;;24.27;17.00;;;13.50;99.90;;;;;;5127638;27;20553;-37
2021/09/05 05:11:25;;;;;;;21.40;15.20;;;13.50;99.90;;;;;;5127366;27;20416;-37
2021/09/05 05:13:53;;;;;;;24.50;17.60;;;13.50;99.90;;;;;;5123820;27;20186;-37
2021/09/05 05:16:22;;;;;;;22.43;16.73;;;13.50;99.90;;;;;;5126511;27;20420;-37
2021/09/05 05:18:47;;;;;;;23.57;17.23;;;13.50;99.90;;;;;;5127041;27;20421;-37
2021/09/05 05:21:13;;;;;;;21.93;17.50;;;13.60;99.90;;;;;;5118724;27;20440;-37
2021/09/05 05:23:39;;;;;;;21.30;16.30;;;13.70;99.90;;;;;;5126410;27;20664;-37
2021/09/05 05:26:04;;;;;;;23.13;16.90;;;13.70;99.90;;;;;;5114488;27;20212;-37
2021/09/05 05:28:30;;;;;;;21.80;15.73;;;13.60;99.90;;;;;;5106687;28;20599;-37
2021/09/05 05:30:56;;;;;;;23.83;17.50;;;13.60;99.90;;;;;;5125070;27;20521;-37
2021/09/05 05:33:21;;;;;;;26.03;17.00;;;13.60;99.90;;;;;;5108197;27;20343;-37
2021/09/05 05:35:47;;;;;;;23.60;16.83;;;13.60;99.90;;;;;;5123228;27;20187;-37
2021/09/05 05:38:13;;;;;;;23.40;17.27;;;13.70;99.90;;;;;;5100277;27;20187;-37
2021/09/05 05:40:39;;;;;;;22.90;16.80;;;13.70;99.90;;;;;;5127165;27;20340;-37
2021/09/05 05:43:04;;;;;;;22.30;16.27;;;13.70;99.90;;;;;;5126456;27;20195;-37
2021/09/05 05:45:30;;;;;;;21.70;16.30;;;13.80;99.90;;;;;;5127536;27;20441;-36
2021/09/05 05:47:56;;;;;;;25.10;16.87;;;13.80;99.90;;;;;;5126547;27;20199;-37
2021/09/05 05:50:21;;;;;;;22.57;16.97;;;13.90;99.90;;;;;;5126917;27;20209;-37
2021/09/05 05:52:47;;;;;;;23.50;16.40;;;13.90;99.90;;;;;;5114281;27;21098;-37
2021/09/05 05:55:13;;;;;;;24.73;16.90;;;13.90;99.90;;;;;;5126969;27;20267;-37
2021/09/05 05:57:39;;;;;;;23.83;17.23;;;14.10;99.90;;;;;;5126946;27;20195;-37
2021/09/05 06:00:06;;;;;;;24.23;17.80;;;14.10;99.90;;;;;;5127021;27;20191;-37
2021/09/05 06:02:32;;;;;;;24.67;17.80;;;14.20;99.90;;;;;;5126300;27;20435;-37
2021/09/05 06:04:58;;;;;;;24.40;17.17;;;14.20;99.90;;;;;;5126844;27;20463;-37
2021/09/05 06:07:25;;;;;;;23.20;16.50;;;14.20;99.90;;;;;;5115993;27;20666;-37
2021/09/05 06:09:51;;;;;;;22.50;17.00;;;14.30;99.90;;;;;;5126485;27;20183;-37
2021/09/05 06:12:17;;;;;;;23.93;17.60;;;14.30;99.90;;;;;;5126301;27;20427;-37
2021/09/05 06:14:43;;;;;;;22.70;16.60;;;14.40;99.90;;;;;;5117554;27;20421;-37
2021/09/05 06:17:09;;;;;;;22.80;17.43;;;14.50;99.90;;;;;;5124626;27;20436;-37
2021/09/05 06:19:34;;;;;;;24.03;16.03;;;14.60;99.90;;;;;;5087800;28;20195;-37
2021/09/05 06:22:00;;;;;;;22.00;16.77;;;14.70;99.90;;;;;;5115551;28;20195;-37
2021/09/05 06:24:26;;;;;;;23.70;18.07;;;14.70;99.90;;;;;;5124297;28;20194;-36
2021/09/05 06:26:51;;;;;;;22.67;15.87;;;14.80;99.90;;;;;;5121574;28;20179;-37
2021/09/05 06:29:17;;;;;;;21.40;16.70;;;14.90;99.90;;;;;;5126916;28;20260;-37
2021/09/05 06:31:42;;;;;;;23.00;16.80;;;15.00;99.90;;;;;;5125936;28;20260;-37
2021/09/05 06:34:08;;;;;;;22.23;16.27;;;15.00;99.90;;;;;;5126600;28;20199;-38
2021/09/05 06:36:34;;;;;;;23.50;18.03;;;15.10;99.90;;;;;;5120727;28;20270;-37
2021/09/05 06:38:59;;;;;;;22.60;16.87;;;15.20;99.90;;;;;;5120503;28;20330;-37
2021/09/05 06:41:25;;;;;;;20.43;15.27;;;15.30;99.90;;;;;;5126026;28;20191;-37
2021/09/05 06:43:51;;;;;;;24.30;18.23;;;15.40;99.90;;;;;;5126581;28;20199;-37
2021/09/05 06:46:16;;;;;;;22.17;16.03;;;15.50;99.90;;;;;;5125675;28;20297;-37
2021/09/05 06:48:45;;;;;;;21.70;16.37;;;15.60;99.90;;;;;;5126554;28;20219;-36
2021/09/05 06:51:12;;;;;;;23.40;15.90;;;15.70;99.90;;;;;;5123991;28;20190;-37
2021/09/05 06:53:41;;;;;;;27.90;17.30;;;15.80;99.90;;;;;;5120759;28;20405;-37
2021/09/05 06:56:07;;;;;;;18.97;15.50;;;15.90;99.90;;;;;;5121425;28;20429;-37
2021/09/05 06:58:33;;;;;;;20.60;16.87;;;15.90;99.90;;;;;;5126280;28;20658;-37
2021/09/05 07:00:58;;;;;;;25.20;18.33;;;15.90;99.90;;;;;;5109870;27;20514;-37
2021/09/05 07:03:24;;;;;;;23.10;16.07;;;15.90;99.90;;;;;;5129922;27;20198;-37
2021/09/05 07:05:49;;;;;;;22.43;16.80;;;16.00;99.90;;;;;;5130278;27;20210;-37
2021/09/05 07:08:15;;;;;;;21.50;15.93;;;16.00;99.90;;;;;;5123675;27;20206;-37
2021/09/05 07:10:41;;;;;;;22.37;16.47;;;16.10;99.90;;;;;;5130112;27;20186;-37
2021/09/05 07:13:07;;;;;;;21.93;16.93;;;16.20;99.90;;;;;;5129753;27;20282;-37
2021/09/05 07:15:34;;;;;;;22.57;16.67;;;16.20;99.90;;;;;;5117876;27;20203;-36
2021/09/05 07:18:01;;;;;;;21.17;16.50;;;16.20;99.90;;;;;;5128425;27;20190;-37
2021/09/05 07:20:27;;;;;;;22.77;16.53;;;16.20;99.90;;;;;;5111910;27;20528;-37
2021/09/05 07:22:52;;;;;;;20.40;16.73;;;16.20;99.90;;;;;;5120671;27;20564;-37
2021/09/05 07:25:20;;;;;;;23.30;17.40;;;16.30;99.90;;;;;;5129514;27;20512;-37
2021/09/05 07:27:46;;;;;;;20.90;16.40;;;16.40;99.90;;;;;;5129054;27;20661;-37
2021/09/05 07:30:13;;;;;;;22.07;16.87;;;16.40;99.90;;;;;;5111421;27;20439;-37
2021/09/05 07:32:39;;;;;;;23.30;16.97;;;16.50;99.90;;;;;;5129180;27;20507;-37
2021/09/05 07:35:06;;;;;;;21.00;15.70;;;16.50;99.90;;;;;;5129719;27;20922;-37
2021/09/05 07:37:32;;;;;;;22.63;17.17;;;16.60;99.90;;;;;;5117866;27;20789;-37
2021/09/05 07:39:58;;;;;;;22.60;18.00;;;16.60;99.90;;;;;;5128540;27;20519;-38
2021/09/05 07:42:23;;;;;;;21.10;15.87;;;16.60;99.90;;;;;;5114364;27;20266;-37
2021/09/05 07:44:49;;;;;;;22.20;16.13;;;16.60;99.90;;;;;;5109227;27;20212;-37
2021/09/05 07:47:15;;;;;;;22.70;16.73;;;16.70;99.90;;;;;;5129201;27;20183;-37
2021/09/05 07:49:40;;;;;;;22.87;16.43;;;16.70;99.90;;;;;;5111049;27;20337;-37
2021/09/05 07:52:06;;;;;;;23.13;17.87;;;16.70;99.90;;;;;;5122709;27;20264;-37
2021/09/05 07:54:32;;;;;;;22.13;16.10;;;16.80;99.90;;;;;;5123139;27;20226;-37
2021/09/05 07:56:57;;;;;;;20.00;15.10;;;16.90;99.90;;;;;;5124824;27;20782;-38
2021/09/05 07:59:23;;;;;;;19.57;16.00;;;16.90;99.90;;;;;;5110870;27;20183;-37
2021/09/05 08:01:49;;;;;;;20.03;16.00;;;17.00;99.90;;;;;;5128954;27;20214;-37
2021/09/05 08:04:14;;;;;;;24.70;16.23;;;17.00;99.90;;;;;;5129184;27;20251;-37
2021/09/05 08:06:40;;;;;;;19.97;15.70;;;17.10;99.90;;;;;;5127473;27;20229;-37
2021/09/05 08:09:06;;;;;;;18.80;14.63;;;17.10;99.90;;;;;;5118131;27;20199;-37
2021/09/05 08:11:31;;;;;;;21.03;16.43;;;17.10;99.90;;;;;;5127752;27;20244;-37
2021/09/05 08:13:57;;;;;;;19.03;15.70;;;17.10;99.90;;;;;;5121871;27;20264;-37
2021/09/05 08:16:23;;;;;;;18.00;14.53;;;17.20;99.90;;;;;;5118709;27;20238;-37
2021/09/05 08:18:49;;;;;;;18.63;14.10;;;17.20;99.90;;;;;;5128810;27;20661;-37
2021/09/05 08:21:14;;;;;;;20.90;15.50;;;17.30;99.90;;;;;;5128787;27;20202;-37
2021/09/05 08:23:41;;;;;;;19.50;14.90;;;17.40;99.90;;;;;;5121054;27;20522;-37
2021/09/05 08:26:10;;;;;;;19.63;14.47;;;17.40;99.90;;;;;;5127968;27;20504;-37
2021/09/05 08:28:36;;;;;;;18.33;14.43;;;17.50;99.90;;;;;;5096798;27;20509;-37
2021/09/05 08:31:02;;;;;;;20.50;15.23;;;17.50;99.90;;;;;;5128729;27;20417;-37
2021/09/05 08:33:28;;;;;;;18.77;14.20;;;17.60;99.90;;;;;;5128217;27;20465;-37
2021/09/05 08:35:54;;;;;;;20.10;15.13;;;17.70;99.90;;;;;;5128260;27;20433;-37
2021/09/05 08:38:20;;;;;;;19.60;15.60;;;17.70;99.90;;;;;;5122815;27;20187;-37
2021/09/05 08:40:48;;;;;;;21.17;15.40;;;17.70;99.90;;;;;;5127467;27;20219;-37
2021/09/05 08:43:15;;;;;;;18.20;14.60;;;17.80;99.90;;;;;;5125799;27;20499;-37
2021/09/05 08:45:44;;;;;;;17.20;14.20;;;17.80;99.90;;;;;;5127938;27;20464;-37
2021/09/05 08:48:10;;;;;;;18.23;13.80;;;17.90;99.90;;;;;;5128497;27;20508;-37
2021/09/05 08:50:36;;;;;;;19.53;14.00;;;18.00;99.90;;;;;;5128718;27;20428;-37
2021/09/05 08:53:02;;;;;;;18.20;14.80;;;18.10;99.90;;;;;;5119272;27;20603;-37
2021/09/05 08:55:28;;;;;;;17.03;13.43;;;18.20;99.90;;;;;;5126112;27;20708;-36
2021/09/05 08:57:54;;;;;;;16.97;13.83;;;18.30;99.90;;;;;;5127734;27;20453;-37
2021/09/05 09:00:20;;;;;;;17.53;13.70;;;18.30;99.90;;;;;;5128165;27;20196;-37
2021/09/05 09:02:52;;;;;;;16.83;13.53;;;18.40;99.90;;;;;;5127291;27;20481;-36
2021/09/05 09:05:36;;;;;;;19.77;14.90;;;18.50;99.90;;;;;;5128014;27;20464;-37
2021/09/05 09:08:12;;;;;;;18.10;14.20;;;18.60;99.90;;;;;;5120359;27;20541;-37
2021/09/05 09:11:01;;;;;;;14.27;12.57;;;18.60;99.90;;;;;;5127860;27;20415;-37
2021/09/05 09:13:40;;;;;;;15.80;13.10;;;18.70;99.90;;;;;;5124541;27;20745;-37
2021/09/05 09:16:07;;;;;;;17.27;13.57;;;18.80;99.90;;;;;;5111579;27;20439;-37
2021/09/05 09:18:34;;;;;;;16.57;14.27;;;18.90;99.90;;;;;;5126287;27;20416;-37
2021/09/05 09:21:03;;;;;;;19.50;14.50;;;19.00;99.90;;;;;;5127865;27;20709;-36
2021/09/05 09:23:32;;;;;;;14.63;12.90;;;19.10;99.90;;;;;;5118132;27;21024;-36
2021/09/05 09:26:02;;;;;;;17.97;14.00;;;19.10;99.90;;;;;;5127461;27;20481;-37
2021/09/05 09:28:36;;;;;;;18.70;14.07;;;19.20;99.90;;;;;;5127065;27;20421;-37
2021/09/05 09:31:18;;;;;;;16.93;13.70;;;19.30;99.90;;;;;;5127657;27;20756;-38
2021/09/05 09:33:46;;;;;;;16.27;13.50;;;19.40;99.90;;;;;;5108382;27;20421;-37
2021/09/05 09:36:17;;;;;;;15.67;12.63;;;19.50;99.90;;;;;;5127106;27;20743;-38
2021/09/05 09:39:00;;;;;;;18.37;13.80;;;19.60;99.90;;;;;;5123974;27;20493;-37
2021/09/05 09:41:37;;;;;;;17.07;12.17;;;19.70;99.90;;;;;;5126746;27;20423;-37
2021/09/05 09:44:04;;;;;;;14.10;12.27;;;19.90;99.90;;;;;;5127049;27;20527;-37
2021/09/05 09:46:35;;;;;;;15.67;12.97;;;20.00;99.90;;;;;;5127114;27;20460;-37
2021/09/05 09:49:04;;;;;;;16.97;12.53;;;20.10;99.90;;;;;;5127056;27;20752;-37
2021/09/05 09:51:33;;;;;;;14.50;11.73;;;20.30;99.90;;;;;;5126857;27;20463;-37
2021/09/05 09:53:59;;;;;;;13.70;11.73;;;20.40;99.90;;;;;;5114907;27;20440;-37
2021/09/05 09:56:26;;;;;;;17.03;12.20;;;20.50;99.90;;;;;;5126903;27;20424;-37
2021/09/05 09:58:56;;;;;;;13.20;11.17;;;20.60;99.90;;;;;;5127034;27;20431;-37
2021/09/05 10:01:24;;;;;;;18.80;13.60;;;20.60;99.90;;;;;;5126925;27;20436;-37
2021/09/05 10:03:52;;;;;;;13.43;11.23;;;20.70;99.90;;;;;;5126820;27;20420;-37
2021/09/05 10:06:22;;;;;;;11.73;10.53;;;20.80;99.90;;;;;;5126792;27;20547;-37
2021/09/05 10:08:48;;;;;;;17.80;11.40;;;20.90;99.90;;;;;;5116319;27;20444;-36
2021/09/05 10:11:19;;;;;;;13.20;11.37;;;20.90;99.90;;;;;;5123067;27;20417;-37
2021/09/05 10:13:45;;;;;;;14.00;11.73;;;21.00;99.90;;;;;;5119764;27;20425;-37
2021/09/05 10:16:12;;;;;;;14.33;11.70;;;21.10;99.90;;;;;;5108049;28;21299;-37
2021/09/05 10:18:49;;;;;;;14.13;11.47;;;21.20;99.90;;;;;;5125683;27;20853;-36
2021/09/05 10:21:20;;;;;;;16.97;12.10;;;21.20;99.90;;;;;;5126783;27;21140;-37
2021/09/05 10:23:49;;;;;;;14.27;11.40;;;21.30;99.90;;;;;;5118899;28;20424;-37
2021/09/05 10:26:16;;;;;;;13.57;11.37;;;21.30;99.90;;;;;;5122497;28;20516;-37
2021/09/05 10:28:44;;;;;;;13.23;11.37;;;21.30;99.90;;;;;;5126667;28;20430;-37
2021/09/05 10:31:11;;;;;;;11.77;10.57;;;21.30;99.90;;;;;;5126181;28;20926;-37
2021/09/05 10:33:44;;;;;;;13.33;10.60;;;21.40;99.90;;;;;;5126340;28;20421;-37
2021/09/05 10:36:11;;;;;;;13.73;11.43;;;21.40;99.90;;;;;;5128822;27;20421;-37
2021/09/05 10:38:44;;;;;;;15.27;11.53;;;21.40;99.90;;;;;;5129849;27;20793;-36
2021/09/05 10:41:15;;;;;;;13.60;11.40;;;21.50;99.90;;;;;;5127523;27;20416;-37
2021/09/05 10:43:54;;;;;;;13.30;10.80;;;21.50;99.90;;;;;;5124861;27;20416;-37
2021/09/05 10:46:26;;;;;;;11.47;10.20;;;21.60;99.90;;;;;;5111716;27;20523;-37
2021/09/05 10:48:55;;;;;;;12.33;10.70;;;21.80;99.90;;;;;;5130727;27;20919;-37
2021/09/05 10:51:26;;;;;;;14.40;10.90;;;21.90;99.90;;;;;;5130684;27;20444;-37
2021/09/05 10:54:01;;;;;;;12.37;11.03;;;21.90;99.90;;;;;;5120695;27;20750;-37
2021/09/05 10:56:35;;;;;;;12.00;10.47;;;22.00;99.90;;;;;;5128169;27;20427;-37
2021/09/05 10:59:06;;;;;;;12.83;11.30;;;22.00;99.90;;;;;;5130539;27;20418;-36
2021/09/05 11:01:37;;;;;;;11.77;10.10;;;22.20;99.90;;;;;;5130133;27;20420;-37
2021/09/05 11:04:12;;;;;;;10.67;9.40;;;22.20;99.90;;;;;;5130414;27;20459;-36
2021/09/05 11:06:40;;;;;;;13.40;12.00;;;22.20;99.90;;;;;;5129529;27;20451;-37
2021/09/05 11:09:21;;;;;;;11.10;10.00;;;22.30;99.90;;;;;;5123846;27;20440;-37
2021/09/05 11:12:07;;;;;;;12.10;10.73;;;22.40;99.90;;;;;;5123310;27;20456;-37
2021/09/05 11:14:36;;;;;;;14.73;11.67;;;22.50;99.90;;;;;;5128289;27;21211;-37
2021/09/05 11:17:09;;;;;;;12.90;10.93;;;22.50;99.90;;;;;;5128335;27;20416;-37
2021/09/05 11:19:47;;;;;;;13.27;11.70;;;22.50;99.90;;;;;;5130122;27;20804;-37
2021/09/05 11:22:18;;;;;;;14.43;12.63;;;22.50;99.90;;;;;;5129535;27;20419;-36
2021/09/05 11:24:44;;;;;;;13.27;11.97;;;22.60;99.90;;;;;;5119512;27;20460;-37
2021/09/05 11:27:15;;;;;;;14.30;11.90;;;22.60;99.90;;;;;;5110907;27;20424;-36
2021/09/05 11:29:41;;;;;;;13.70;11.80;;;22.70;99.90;;;;;;5125317;27;20848;-37
2021/09/05 11:32:12;;;;;;;11.70;10.50;;;22.80;99.90;;;;;;5129571;27;20759;-37
2021/09/05 11:34:50;;;;;;;14.10;11.33;;;22.80;99.90;;;;;;5129709;27;20420;-37
2021/09/05 11:37:33;;;;;;;14.07;11.47;;;22.90;99.90;;;;;;5129595;27;20774;-37
2021/09/05 11:40:19;;;;;;;14.10;12.37;;;22.90;99.90;;;;;;5119218;27;20425;-36
2021/09/05 11:42:51;;;;;;;12.67;11.10;;;23.00;99.90;;;;;;5125356;27;20507;-37
2021/09/05 11:45:19;;;;;;;13.97;12.60;;;23.00;99.90;;;;;;5130110;27;20988;-37
2021/09/05 11:47:47;;;;;;;13.03;11.37;;;23.00;99.90;;;;;;5128174;27;20428;-37
2021/09/05 11:50:15;;;;;;;12.60;11.17;;;23.10;99.90;;;;;;5129206;27;20420;-37
2021/09/05 11:52:42;;;;;;;12.30;11.00;;;23.10;99.90;;;;;;5129206;27;20420;-37
2021/09/05 11:55:14;;;;;;;14.10;11.30;;;23.10;99.90;;;;;;5104065;27;20445;-36
2021/09/05 11:58:00;;;;;;;14.70;11.67;;;23.10;99.90;;;;;;5120953;27;20428;-36
2021/09/05 12:00:34;;;;;;;12.80;11.40;;;23.20;99.90;;;;;;5129137;27;20412;-37
2021/09/05 12:03:02;;;;;;;13.67;11.10;;;23.20;99.90;;;;;;5128856;27;20958;-37
2021/09/05 12:05:28;;;;;;;13.53;12.17;;;23.20;99.90;;;;;;5128934;27;20549;-37
2021/09/05 12:07:55;;;;;;;13.73;10.83;;;23.20;99.90;;;;;;5128737;27;20570;-36
2021/09/05 12:10:28;;;;;;;13.97;11.53;;;23.10;99.90;;;;;;5114634;27;20203;-36
2021/09/05 12:13:10;;;;;;;13.67;12.27;;;23.10;99.90;;;;;;5121809;27;20485;-36
2021/09/05 12:15:43;;;;;;;12.37;11.13;;;23.20;99.90;;;;;;5108416;27;20425;-36
2021/09/05 12:18:26;;;;;;;14.87;12.43;;;23.30;99.90;;;;;;5118760;27;20432;-37
2021/09/05 12:20:57;;;;;;;12.97;11.13;;;23.30;99.90;;;;;;5111552;27;20849;-36
2021/09/05 12:23:46;;;;;;;13.47;12.10;;;23.40;99.90;;;;;;5127600;27;20421;-36
2021/09/05 12:26:17;;;;;;;13.30;12.00;;;23.50;99.90;;;;;;5122571;27;20467;-37
2021/09/05 12:28:59;;;;;;;13.83;12.43;;;23.50;99.90;;;;;;5120506;27;20473;-36
2021/09/05 12:31:39;;;;;;;13.33;11.60;;;23.50;99.90;;;;;;5128524;27;20461;-36
2021/09/05 12:34:05;;;;;;;16.57;12.33;;;23.50;99.90;;;;;;5128408;27;20422;-36